createdAt,value
2018-09-10T00:00:11.672Z,98655.62
2018-09-10T00:02:40.368Z,98658.16
2018-09-10T00:05:10.394Z,98656.55
2018-09-10T00:07:39.104Z,98653.36
2018-09-10T00:10:07.987Z,98659.02
2018-09-10T00:12:36.627Z,98650.41
2018-09-10T00:15:05.933Z,98656.06
2018-09-10T00:17:34.678Z,98649.81
2018-09-10T00:20:03.393Z,98650.20
2018-09-10T00:22:32.264Z,98652.95
2018-09-10T00:25:01.683Z,98653.52
2018-09-10T00:27:30.583Z,98656.33
2018-09-10T00:29:59.398Z,98654.45
2018-09-10T00:32:28.031Z,98657.18
2018-09-10T00:34:56.631Z,98657.52
2018-09-10T00:37:25.649Z,98665.12
2018-09-10T00:39:54.401Z,98665.94
2018-09-10T00:42:23.368Z,98661.60
2018-09-10T00:44:52.710Z,98667.01
2018-09-10T00:47:22.203Z,98671.66
2018-09-10T00:49:51.078Z,98670.05
2018-09-10T00:52:19.851Z,98670.02
2018-09-10T00:54:48.733Z,98670.56
2018-09-10T00:57:18.378Z,98665.75
2018-09-10T00:59:47.647Z,98671.20
2018-09-10T01:02:16.346Z,98671.16
2018-09-10T01:04:45.031Z,98668.27
2018-09-10T01:07:13.848Z,98663.69
2018-09-10T01:09:42.629Z,98669.86
2018-09-10T01:12:11.293Z,98673.92
2018-09-10T01:14:40.001Z,98676.11
2018-09-10T01:17:09.909Z,98675.64
2018-09-10T01:19:38.723Z,98672.65
2018-09-10T01:22:07.943Z,98674.55
2018-09-10T01:24:36.619Z,98675.64
2018-09-10T01:27:05.447Z,98672.95
2018-09-10T01:29:34.041Z,98672.14
2018-09-10T01:32:02.752Z,98682.74
2018-09-10T01:34:36.506Z,98678.98
2018-09-10T01:37:05.236Z,98687.33
2018-09-10T01:39:34.233Z,98683.56
2018-09-10T01:42:02.767Z,98672.24
2018-09-10T01:44:32.208Z,98679.53
2018-09-10T01:47:01.122Z,98678.75
2018-09-10T01:49:30.018Z,98676.90
2018-09-10T01:51:58.678Z,98675.27
2018-09-10T01:54:27.326Z,98675.04
2018-09-10T01:56:58.108Z,98676.63
2018-09-10T01:59:27.119Z,98662.59
2018-09-10T02:01:55.644Z,98661.55
2018-09-10T02:04:24.149Z,98659.98
2018-09-10T02:06:53.043Z,98659.98
2018-09-10T02:09:23.340Z,98655.64
2018-09-10T02:11:52.485Z,98658.63
2018-09-10T02:14:21.293Z,98658.11
2018-09-10T02:16:49.954Z,98658.13
2018-09-10T02:19:19.157Z,98653.83
2018-09-10T02:21:48.558Z,98655.47
2018-09-10T02:24:17.125Z,98654.66
2018-09-10T02:26:45.879Z,98658.99
2018-09-10T02:29:15.604Z,98659.02
2018-09-10T02:31:44.289Z,98652.84
2018-09-10T02:34:13.050Z,98648.52
2018-09-10T02:36:41.799Z,98646.36
2018-09-10T02:39:10.452Z,98650.16
2018-09-10T02:41:43.442Z,98653.67
2018-09-10T02:44:14.384Z,98659.08
2018-09-10T02:46:43.104Z,98660.14
2018-09-10T02:49:11.755Z,98663.41
2018-09-10T02:51:40.538Z,98668.01
2018-09-10T02:54:09.347Z,98660.45
2018-09-10T02:56:38.113Z,98672.06
2018-09-10T02:59:07.033Z,98669.94
2018-09-10T03:01:35.919Z,98676.64
2018-09-10T03:04:05.273Z,98675.87
2018-09-10T03:06:33.929Z,98674.77
2018-09-10T03:09:02.618Z,98685.31
2018-09-10T03:11:31.366Z,98680.20
2018-09-10T03:14:00.142Z,98680.20
2018-09-10T03:16:29.383Z,98674.53
2018-09-10T03:18:58.217Z,98676.98
2018-09-10T03:21:26.949Z,98673.76
2018-09-10T03:23:56.182Z,98673.47
2018-09-10T03:26:25.340Z,98672.16
2018-09-10T03:28:54.059Z,98675.14
2018-09-10T03:31:22.707Z,98671.38
2018-09-10T03:33:51.608Z,98668.12
2018-09-10T03:36:20.318Z,98668.16
2018-09-10T03:38:48.875Z,98671.63
2018-09-10T03:41:17.656Z,98673.27
2018-09-10T03:43:46.481Z,98670.85
2018-09-10T03:46:16.179Z,98675.71
2018-09-10T03:48:44.873Z,98683.27
2018-09-10T03:51:13.498Z,98679.50
2018-09-10T03:53:42.679Z,98671.12
2018-09-10T03:56:11.656Z,98678.43
2018-09-10T03:58:40.973Z,98672.50
2018-09-10T04:01:10.414Z,98677.62
2018-09-10T04:03:39.741Z,98677.36
2018-09-10T04:06:08.764Z,98679.78
2018-09-10T04:08:37.709Z,98679.50
2018-09-10T04:11:06.904Z,98681.94
2018-09-10T04:13:35.545Z,98683.81
2018-09-10T04:16:05.922Z,98686.27
2018-09-10T04:18:34.645Z,98695.16
2018-09-10T04:21:04.163Z,98700.28
2018-09-10T04:23:33.539Z,98703.78
2018-09-10T04:26:02.621Z,98697.00
2018-09-10T04:28:32.149Z,98702.67
2018-09-10T04:31:01.097Z,98698.34
2018-09-10T04:33:29.895Z,98709.68
2018-09-10T04:35:58.628Z,98712.62
2018-09-10T04:38:28.911Z,98715.31
2018-09-10T04:40:57.834Z,98704.53
2018-09-10T04:43:26.596Z,98705.08
2018-09-10T04:45:55.411Z,98700.75
2018-09-10T04:48:24.278Z,98703.19
2018-09-10T04:50:52.835Z,98697.27
2018-09-10T04:53:21.689Z,98706.41
2018-09-10T04:55:50.433Z,98704.28
2018-09-10T04:58:19.124Z,98713.15
2018-09-10T05:00:47.865Z,98719.63
2018-09-10T05:03:16.923Z,98723.67
2018-09-10T05:05:46.243Z,98731.73
2018-09-10T05:08:16.116Z,98724.72
2018-09-10T05:10:45.346Z,98727.94
2018-09-10T05:13:13.994Z,98726.88
2018-09-10T05:15:43.405Z,98731.20
2018-09-10T05:18:12.299Z,98727.17
2018-09-10T05:20:41.641Z,98732.55
2018-09-10T05:23:10.276Z,98737.70
2018-09-10T05:25:39.322Z,98731.23
2018-09-10T05:28:08.306Z,98721.83
2018-09-10T05:30:37.144Z,98729.64
2018-09-10T05:33:06.400Z,98722.36
2018-09-10T05:35:35.669Z,98726.95
2018-09-10T05:38:06.406Z,98725.34
2018-09-10T05:40:35.905Z,98734.75
2018-09-10T05:43:04.641Z,98737.20
2018-09-10T05:45:33.611Z,98740.16
2018-09-10T05:48:02.223Z,98747.97
2018-09-10T05:50:31.394Z,98755.25
2018-09-10T05:53:01.166Z,98759.02
2018-09-10T05:55:30.895Z,98763.86
2018-09-10T05:58:00.012Z,98761.38
2018-09-10T06:00:29.174Z,98755.92
2018-09-10T06:02:58.661Z,98757.25
2018-09-10T06:05:27.620Z,98749.33
2018-09-10T06:07:58.901Z,98748.96
2018-09-10T06:10:28.143Z,98758.61
2018-09-10T06:12:57.187Z,98759.97
2018-09-10T06:15:26.387Z,98758.23
2018-09-10T06:17:56.902Z,98754.84
2018-09-10T06:20:25.601Z,98746.17
2018-09-10T06:22:54.470Z,98742.66
2018-09-10T06:25:23.329Z,98743.48
2018-09-10T06:27:52.224Z,98752.49
2018-09-10T06:30:24.070Z,98753.08
2018-09-10T06:32:52.899Z,98750.55
2018-09-10T06:35:22.433Z,98753.81
2018-09-10T06:37:51.372Z,98745.97
2018-09-10T06:40:20.275Z,98753.70
2018-09-10T06:42:49.064Z,98753.61
2018-09-10T06:45:18.031Z,98766.10
2018-09-10T06:47:46.843Z,98768.50
2018-09-10T06:50:15.590Z,98772.56
2018-09-10T06:52:44.312Z,98767.59
2018-09-10T06:55:13.020Z,98774.31
2018-09-10T06:57:42.314Z,98771.63
2018-09-10T07:00:12.800Z,98775.75
2018-09-10T07:02:41.757Z,98773.40
2018-09-10T07:05:11.492Z,98779.05
2018-09-10T07:07:40.782Z,98776.27
2018-09-10T07:10:09.727Z,98769.53
2018-09-10T07:12:38.594Z,98769.53
2018-09-10T07:15:07.780Z,98771.15
2018-09-10T07:17:36.934Z,98780.59
2018-09-10T07:20:07.220Z,98781.31
2018-09-10T07:22:36.430Z,98782.45
2018-09-10T07:25:05.296Z,98786.66
2018-09-10T07:27:34.886Z,98783.31
2018-09-10T07:30:04.226Z,98792.33
2018-09-10T07:32:32.972Z,98788.51
2018-09-10T07:35:02.511Z,98792.38
2018-09-10T07:37:31.206Z,98792.36
2018-09-10T07:39:59.939Z,98797.61
2018-09-10T07:42:29.363Z,98796.09
2018-09-10T07:44:58.454Z,98785.61
2018-09-10T07:47:27.416Z,98787.47
2018-09-10T07:49:56.002Z,98792.30
2018-09-10T07:52:25.115Z,98791.36
2018-09-10T07:54:54.541Z,98793.20
2018-09-10T07:57:23.194Z,98792.36
2018-09-10T07:59:53.268Z,98797.14
2018-09-10T08:02:22.139Z,98789.96
2018-09-10T08:04:50.902Z,98792.97
2018-09-10T08:07:20.370Z,98803.27
2018-09-10T08:09:49.365Z,98797.28
2018-09-10T08:12:18.211Z,98790.01
2018-09-10T08:14:48.299Z,98804.36
2018-09-10T08:17:17.889Z,98800.47
2018-09-10T08:19:46.731Z,98803.83
2018-09-10T08:22:15.820Z,98800.15
2018-09-10T08:24:45.047Z,98801.33
2018-09-10T08:27:14.245Z,98811.97
2018-09-10T08:29:43.365Z,98806.08
2018-09-10T08:32:12.657Z,98812.84
2018-09-10T08:34:41.355Z,98806.88
2018-09-10T08:37:10.162Z,98821.72
2018-09-10T08:39:39.415Z,98816.86
2018-09-10T08:42:08.445Z,98821.16
2018-09-10T08:44:38.063Z,98818.41
2018-09-10T08:47:07.092Z,98818.41
2018-09-10T08:49:36.326Z,98821.88
2018-09-10T08:52:05.856Z,98812.73
2018-09-10T08:54:35.075Z,98810.39
2018-09-10T08:57:03.902Z,98821.97
2018-09-10T08:59:33.786Z,98813.59
2018-09-10T09:02:02.821Z,98815.72
2018-09-10T09:04:32.637Z,98814.65
2018-09-10T09:07:02.881Z,98809.28
2018-09-10T09:09:31.641Z,98809.73
2018-09-10T09:12:01.171Z,98808.48
2018-09-10T09:14:32.777Z,98804.86
2018-09-10T09:17:01.599Z,98800.17
2018-09-10T09:19:31.459Z,98798.09
2018-09-10T09:22:00.112Z,98797.09
2018-09-10T09:24:29.320Z,98795.14
2018-09-10T09:26:58.202Z,98790.38
2018-09-10T09:29:29.045Z,98792.92
2018-09-10T09:31:57.627Z,98785.41
2018-09-10T09:34:31.616Z,98789.28
2018-09-10T09:37:05.509Z,98782.27
2018-09-10T09:39:40.372Z,98783.66
2018-09-10T09:42:14.289Z,98776.73
2018-09-10T09:44:48.496Z,98777.37
2018-09-10T09:47:17.686Z,98777.06
2018-09-10T09:49:46.937Z,98775.70
2018-09-10T09:52:16.068Z,98777.19
2018-09-10T09:54:45.556Z,98777.84
2018-09-10T09:57:14.797Z,98771.63
2018-09-10T09:59:43.777Z,98769.97
2018-09-10T10:02:17.896Z,98765.88
2018-09-10T10:04:47.255Z,98773.80
2018-09-10T10:07:16.656Z,98769.55
2018-09-10T10:09:45.570Z,98775.41
2018-09-10T10:12:16.014Z,98766.31
2018-09-10T10:14:45.185Z,98763.39
2018-09-10T10:17:14.131Z,98764.47
2018-09-10T10:19:42.857Z,98755.56
2018-09-10T10:22:11.565Z,98759.71
2018-09-10T10:24:41.342Z,98752.69
2018-09-10T10:27:11.057Z,98746.33
2018-09-10T10:29:41.096Z,98750.95
2018-09-10T10:32:10.496Z,98748.16
2018-09-10T10:34:39.523Z,98748.77
2018-09-10T10:37:08.959Z,98742.28
2018-09-10T10:39:37.760Z,98746.43
2018-09-10T10:42:07.316Z,98752.39
2018-09-10T10:44:36.727Z,98746.24
2018-09-10T10:47:06.006Z,98748.91
2018-09-10T10:49:34.640Z,98746.23
2018-09-10T10:52:03.552Z,98758.84
2018-09-10T10:54:34.106Z,98755.56
2018-09-10T10:57:03.906Z,98758.88
2018-09-10T10:59:32.920Z,98754.65
2018-09-10T11:02:01.795Z,98756.47
2018-09-10T11:04:30.465Z,98759.55
2018-09-10T11:06:59.626Z,98757.61
2018-09-10T11:09:28.836Z,98758.94
2018-09-10T11:11:57.577Z,98747.25
2018-09-10T11:14:26.902Z,98747.91
2018-09-10T11:16:56.606Z,98745.78
2018-09-10T11:19:25.673Z,98745.15
2018-09-10T11:21:54.976Z,98748.22
2018-09-10T11:24:24.195Z,98753.50
2018-09-10T11:26:53.287Z,98746.88
2018-09-10T11:29:24.591Z,98750.26
2018-09-10T11:31:53.408Z,98738.34
2018-09-10T11:34:22.299Z,98738.17
2018-09-10T11:36:52.176Z,98741.64
2018-09-10T11:39:21.591Z,98736.85
2018-09-10T11:41:50.310Z,98734.63
2018-09-10T11:44:19.775Z,98727.40
2018-09-10T11:46:48.453Z,98729.47
2018-09-10T11:49:17.413Z,98731.04
2018-09-10T11:51:46.556Z,98721.88
2018-09-10T11:54:15.672Z,98714.55
2018-09-10T11:56:44.542Z,98715.00
2018-09-10T11:59:13.252Z,98709.23
2018-09-10T12:01:42.747Z,98703.95
2018-09-10T12:04:11.656Z,98711.25
2018-09-10T12:06:40.602Z,98710.75
2018-09-10T12:09:10.132Z,98704.43
2018-09-10T12:11:39.389Z,98704.50
2018-09-10T12:14:08.498Z,98706.50
2018-09-10T12:16:37.351Z,98700.20
2018-09-10T12:19:07.113Z,98700.30
2018-09-10T12:21:35.975Z,98708.09
2018-09-10T12:24:06.691Z,98704.49
2018-09-10T12:26:35.805Z,98708.00
2018-09-10T12:29:04.735Z,98702.22
2018-09-10T12:31:33.835Z,98696.30
2018-09-10T12:34:02.736Z,98695.77
2018-09-10T12:36:31.487Z,98698.40
2018-09-10T12:39:00.420Z,98695.39
2018-09-10T12:41:29.116Z,98693.91
2018-09-10T12:43:58.504Z,98691.44
2018-09-10T12:46:27.650Z,98695.69
2018-09-10T12:48:56.785Z,98687.88
2018-09-10T12:51:26.036Z,98679.88
2018-09-10T12:53:55.176Z,98680.45
2018-09-10T12:56:25.304Z,98669.40
2018-09-10T12:58:54.578Z,98670.61
2018-09-10T13:01:23.466Z,98660.09
2018-09-10T13:03:52.452Z,98657.84
2018-09-10T13:06:21.162Z,98649.17
2018-09-10T13:08:50.119Z,98658.45
2018-09-10T13:11:19.815Z,98650.92
2018-09-10T13:13:49.156Z,98646.75
2018-09-10T13:16:19.062Z,98637.67
2018-09-10T13:18:48.319Z,98633.47
2018-09-10T13:21:17.502Z,98630.21
2018-09-10T13:23:46.593Z,98610.19
2018-09-10T13:26:15.220Z,98629.69
2018-09-10T13:28:44.839Z,98626.27
2018-09-10T13:31:14.578Z,98629.13
2018-09-10T13:33:43.596Z,98619.33
2018-09-10T13:36:12.907Z,98615.77
2018-09-10T13:38:41.798Z,98628.39
2018-09-10T13:41:11.362Z,98620.67
2018-09-10T13:43:40.537Z,98617.52
2018-09-10T13:46:10.967Z,98621.11
2018-09-10T13:48:39.873Z,98623.22
2018-09-10T13:51:09.218Z,98617.82
2018-09-10T13:53:38.149Z,98623.36
2018-09-10T13:56:07.798Z,98617.91
2018-09-10T13:58:36.764Z,98628.00
2018-09-10T14:01:07.186Z,98616.77
2018-09-10T14:03:35.808Z,98614.22
2018-09-10T14:06:04.685Z,98612.23
2018-09-10T14:08:33.855Z,98606.31
2018-09-10T14:11:02.523Z,98595.63
2018-09-10T14:13:31.148Z,98596.55
2018-09-10T14:16:00.126Z,98607.97
2018-09-10T14:18:30.326Z,98598.61
2018-09-10T14:20:59.432Z,98599.83
2018-09-10T14:23:28.102Z,98610.64
2018-09-10T14:25:56.991Z,98611.01
2018-09-10T14:28:26.668Z,98596.18
2018-09-10T14:30:55.852Z,98599.84
2018-09-10T14:33:24.595Z,98595.58
2018-09-10T14:35:53.907Z,98597.06
2018-09-10T14:38:22.748Z,98590.44
2018-09-10T14:40:52.687Z,98589.55
2018-09-10T14:43:21.998Z,98589.11
2018-09-10T14:45:51.183Z,98580.78
2018-09-10T14:48:20.349Z,98583.58
2018-09-10T14:50:49.140Z,98584.15
2018-09-10T14:53:17.863Z,98577.80
2018-09-10T14:55:47.276Z,98586.34
2018-09-10T14:58:16.192Z,98584.55
2018-09-10T15:00:45.530Z,98583.89
2018-09-10T15:03:15.553Z,98581.05
2018-09-10T15:05:44.455Z,98582.70
2018-09-10T15:08:13.401Z,98567.02
2018-09-10T15:10:42.519Z,98580.83
2018-09-10T15:13:11.647Z,98583.80
2018-09-10T15:15:40.672Z,98576.28
2018-09-10T15:18:09.479Z,98574.40
2018-09-10T15:20:38.253Z,98571.30
2018-09-10T15:23:07.177Z,98573.02
2018-09-10T15:25:35.920Z,98573.44
2018-09-10T15:28:04.660Z,98568.93
2018-09-10T15:30:33.908Z,98567.95
2018-09-10T15:33:03.619Z,98566.78
2018-09-10T15:35:32.595Z,98568.78
2018-09-10T15:38:02.011Z,98566.13
2018-09-10T15:40:31.314Z,98574.16
2018-09-10T15:43:00.330Z,98575.09
2018-09-10T15:45:29.520Z,98578.17
2018-09-10T15:47:58.419Z,98576.64
2018-09-10T15:50:27.250Z,98578.22
2018-09-10T15:53:03.442Z,98579.16
2018-09-10T15:55:32.254Z,98584.88
2018-09-10T15:58:01.163Z,98590.16
2018-09-10T16:00:30.883Z,98595.59
2018-09-10T16:02:59.858Z,98590.89
2018-09-10T16:05:28.593Z,98599.94
2018-09-10T16:07:57.960Z,98600.69
2018-09-10T16:10:27.493Z,98597.91
2018-09-10T16:12:56.209Z,98592.00
2018-09-10T16:15:25.125Z,98594.48
2018-09-10T16:17:54.303Z,98599.53
2018-09-10T16:20:23.204Z,98601.80
2018-09-10T16:22:51.890Z,98600.88
2018-09-10T16:25:20.663Z,98598.22
2018-09-10T16:27:49.368Z,98597.87
2018-09-10T16:30:18.709Z,98605.05
2018-09-10T16:32:47.788Z,98594.97
2018-09-10T16:35:16.854Z,98601.13
2018-09-10T16:37:45.738Z,98599.55
2018-09-10T16:40:15.273Z,98595.38
2018-09-10T16:42:44.123Z,98604.50
2018-09-10T16:45:13.895Z,98609.25
2018-09-10T16:47:42.878Z,98614.37
2018-09-10T16:50:12.353Z,98616.94
2018-09-10T16:52:41.544Z,98624.20
2018-09-10T16:55:10.383Z,98617.03
2018-09-10T16:57:39.441Z,98617.17
2018-09-10T17:00:08.258Z,98619.30
2018-09-10T17:02:37.293Z,98621.14
2018-09-10T17:05:06.059Z,98615.44
2018-09-10T17:07:37.158Z,98608.03
2018-09-10T17:10:06.216Z,98611.14
2018-09-10T17:12:35.284Z,98612.88
2018-09-10T17:15:04.434Z,98611.16
2018-09-10T17:17:33.562Z,98616.60
2018-09-10T17:20:02.546Z,98617.91
2018-09-10T17:22:32.177Z,98621.13
2018-09-10T17:25:01.061Z,98615.53
2018-09-10T17:27:30.557Z,98615.36
2018-09-10T17:29:59.648Z,98611.41
2018-09-10T17:32:29.048Z,98611.45
2018-09-10T17:34:58.090Z,98620.60
2018-09-10T17:37:27.139Z,98616.59
2018-09-10T17:39:55.989Z,98622.24
2018-09-10T17:42:25.234Z,98625.06
2018-09-10T17:44:54.233Z,98620.05
2018-09-10T17:47:23.199Z,98622.42
2018-09-10T17:49:52.870Z,98622.19
2018-09-10T17:52:21.849Z,98623.86
2018-09-10T17:54:51.123Z,98623.11
2018-09-10T17:57:19.806Z,98624.55
2018-09-10T17:59:48.753Z,98632.02
2018-09-10T18:02:17.785Z,98636.16
2018-09-10T18:04:47.033Z,98643.25
2018-09-10T18:07:15.860Z,98644.48
2018-09-10T18:09:44.683Z,98642.23
2018-09-10T18:12:13.576Z,98646.81
2018-09-10T18:14:43.975Z,98646.73
2018-09-10T18:17:13.555Z,98646.09
2018-09-10T18:19:42.260Z,98655.83
2018-09-10T18:22:11.477Z,98666.10
2018-09-10T18:24:40.350Z,98664.50
2018-09-10T18:27:09.198Z,98664.89
2018-09-10T18:29:38.290Z,98672.70
2018-09-10T18:32:07.379Z,98672.33
2018-09-10T18:34:36.246Z,98680.68
2018-09-10T18:37:05.931Z,98680.00
2018-09-10T18:39:35.059Z,98680.05
2018-09-10T18:42:04.467Z,98679.53
2018-09-10T18:44:33.545Z,98678.84
2018-09-10T18:47:02.455Z,98677.53
2018-09-10T18:49:31.369Z,98684.00
2018-09-10T18:52:00.365Z,98683.37
2018-09-10T18:54:29.337Z,98683.63
2018-09-10T18:56:58.674Z,98690.03
2018-09-10T18:59:27.516Z,98690.02
2018-09-10T19:01:56.480Z,98687.23
2018-09-10T19:04:25.301Z,98693.39
2018-09-10T19:06:54.501Z,98693.84
2018-09-10T19:09:24.355Z,98695.21
2018-09-10T19:11:54.214Z,98695.07
2018-09-10T19:14:23.351Z,98700.34
2018-09-10T19:16:52.717Z,98700.44
2018-09-10T19:19:21.801Z,98702.73
2018-09-10T19:21:51.010Z,98695.86
2018-09-10T19:24:21.118Z,98701.83
2018-09-10T19:26:50.171Z,98700.25
2018-09-10T19:29:19.680Z,98704.53
2018-09-10T19:31:48.709Z,98710.34
2018-09-10T19:34:18.120Z,98717.65
2018-09-10T19:36:47.800Z,98714.05
2018-09-10T19:39:17.594Z,98715.44
2018-09-10T19:41:46.555Z,98718.97
2018-09-10T19:44:16.130Z,98717.95
2018-09-10T19:46:45.280Z,98719.36
2018-09-10T19:49:14.405Z,98715.92
2018-09-10T19:51:43.516Z,98723.08
2018-09-10T19:54:12.696Z,98717.70
2018-09-10T19:56:42.136Z,98716.96
2018-09-10T19:59:11.241Z,98713.00
2018-09-10T20:01:40.539Z,98718.98
2018-09-10T20:04:09.862Z,98716.05
2018-09-10T20:06:38.839Z,98717.03
2018-09-10T20:09:10.010Z,98717.79
2018-09-10T20:11:39.270Z,98718.94
2018-09-10T20:14:08.106Z,98715.00
2018-09-10T20:16:37.757Z,98715.20
2018-09-10T20:19:07.284Z,98711.95
2018-09-10T20:21:37.060Z,98719.09
2018-09-10T20:24:06.227Z,98717.07
2018-09-10T20:26:35.875Z,98719.41
2018-09-10T20:29:04.871Z,98732.98
2018-09-10T20:31:33.901Z,98730.33
2018-09-10T20:34:07.706Z,98731.88
2018-09-10T20:36:37.706Z,98737.57
2018-09-10T20:39:12.534Z,98743.41
2018-09-10T20:41:41.470Z,98743.89
2018-09-10T20:44:10.968Z,98746.70
2018-09-10T20:46:40.175Z,98746.30
2018-09-10T20:49:09.188Z,98748.88
2018-09-10T20:51:38.150Z,98749.97
2018-09-10T20:54:07.883Z,98761.55
2018-09-10T20:56:37.089Z,98756.09
2018-09-10T20:59:06.156Z,98753.57
2018-09-10T21:01:35.450Z,98751.80
2018-09-10T21:04:05.779Z,98759.34
2018-09-10T21:06:34.994Z,98759.88
2018-09-10T21:09:04.298Z,98760.58
2018-09-10T21:11:33.356Z,98764.72
2018-09-10T21:14:02.365Z,98767.42
2018-09-10T21:16:31.580Z,98766.94
2018-09-10T21:19:00.494Z,98771.03
2018-09-10T21:21:29.224Z,98771.77
2018-09-10T21:23:58.365Z,98779.20
2018-09-10T21:26:27.475Z,98776.09
2018-09-10T21:28:56.961Z,98778.52
2018-09-10T21:31:25.996Z,98775.38
2018-09-10T21:33:54.855Z,98788.81
2018-09-10T21:36:24.141Z,98790.34
2018-09-10T21:38:54.086Z,98792.45
2018-09-10T21:41:22.954Z,98791.96
2018-09-10T21:43:52.059Z,98786.70
2018-09-10T21:46:21.054Z,98788.69
2018-09-10T21:48:49.680Z,98795.17
2018-09-10T21:51:18.475Z,98795.69
2018-09-10T21:53:47.311Z,98786.80
2018-09-10T21:56:16.196Z,98796.66
2018-09-10T21:58:45.078Z,98794.86
2018-09-10T22:01:13.841Z,98792.67
2018-09-10T22:03:43.152Z,98801.29
2018-09-10T22:06:11.919Z,98809.58
2018-09-10T22:08:40.585Z,98803.41
2018-09-10T22:11:09.315Z,98810.77
2018-09-10T22:13:37.994Z,98812.45
2018-09-10T22:16:07.035Z,98816.17
2018-09-10T22:18:35.989Z,98813.67
2018-09-10T22:21:06.122Z,98820.85
2018-09-10T22:23:34.790Z,98813.17
2018-09-10T22:26:03.971Z,98814.91
2018-09-10T22:28:34.317Z,98815.55
2018-09-10T22:31:03.327Z,98821.97
2018-09-10T22:33:32.101Z,98824.06
2018-09-10T22:36:00.820Z,98829.38
2018-09-10T22:38:30.069Z,98826.36
2018-09-10T22:40:58.970Z,98822.30
2018-09-10T22:43:28.590Z,98827.95
2018-09-10T22:45:57.722Z,98827.38
2018-09-10T22:48:26.642Z,98820.17
2018-09-10T22:50:55.356Z,98823.06
2018-09-10T22:53:24.067Z,98811.81
2018-09-10T22:55:52.750Z,98818.22
2018-09-10T22:58:21.321Z,98815.36
2018-09-10T23:00:50.155Z,98816.62
2018-09-10T23:03:18.816Z,98818.34
2018-09-10T23:05:47.672Z,98818.19
2018-09-10T23:08:16.477Z,98818.81
2018-09-10T23:10:45.723Z,98812.77
2018-09-10T23:13:14.402Z,98816.91
2018-09-10T23:15:43.068Z,98812.70
2018-09-10T23:18:11.809Z,98808.38
2018-09-10T23:20:41.048Z,98810.33
2018-09-10T23:23:10.273Z,98813.27
2018-09-10T23:25:39.000Z,98813.81
2018-09-10T23:28:07.721Z,98820.66
2018-09-10T23:30:36.556Z,98819.30
2018-09-10T23:33:06.096Z,98822.88
2018-09-10T23:35:35.001Z,98822.38
2018-09-10T23:38:03.656Z,98817.30
2018-09-10T23:40:32.447Z,98818.61
2018-09-10T23:43:02.080Z,98819.20
2018-09-10T23:45:31.304Z,98814.58
2018-09-10T23:48:00.151Z,98813.16
2018-09-10T23:50:29.403Z,98810.02
2018-09-10T23:52:58.105Z,98818.80
2018-09-10T23:55:27.279Z,98817.71
2018-09-10T23:57:56.474Z,98823.96
